Terminal Aerodrome Forecast
Issued by NWS

Home | Current Version | Previous Version | Text Only | Print | Product List | Glossary On
Versions: 1 2 3 4 5 6 7 8 9 10 11 12 13 14 15 16 17 18
461
FTAK31 PAJN 102203 AAA
TAFAGY
TAF AMD
PAGY 102203Z 1022/1118 04012KT P6SM OVC060
      TEMPO 1022/1102 VRB03KT 6SM -RA OVC040
     FM110500 04008KT P6SM -RA OVC040
     FM111000 20010KT P6SM -RA OVC040
      AMD LTD TO CLD VIS AND WIND=

USA.gov is the U.S. government's official web portal to all federal, state and local government web resources and services.